Landfall Village, Minnesota
Current Conditions -  °F | °C
As of 3:51 PM on Wednesday 26 Nov 2014 (Local Time) from K21D Reporting Station
Overcast Overcast  
Wind Chill: 17°   Ceiling: 2400
Heat Index: 27°   Visibility: 10mi
Dew Point: 19°   Wind: 10mph
Humidity: 74%   Direction: 340°NNW
Pressure: 30.25"   Gusts: NA
Location:  44.9915°N, 92.9659°W
Report Text: K21D 262151Z AUTO 34009KT 10SM OVC024 M03/M07 A3025 RMK AO2
Loading
Personal Weather Stations






























Interactive Weather Map New forecast layout! Learn more

10-Day Weather Forecast

Advertisements
Track Severe Weather on mobile